sensor_id;sensor_type;location;lat;lon;timestamp;P1;durP1;ratioP1;P2;durP2;ratioP2
43676;SDS011;29275;48.800;18.102;2022-11-03T00:00:55;4.60;;;1.88;;
43676;SDS011;29275;48.800;18.102;2022-11-03T00:03:57;2.78;;;1.02;;
43676;SDS011;29275;48.800;18.102;2022-11-03T00:06:59;7.05;;;1.67;;
43676;SDS011;29275;48.800;18.102;2022-11-03T00:10:01;4.85;;;1.40;;
43676;SDS011;29275;48.800;18.102;2022-11-03T00:13:02;4.35;;;1.35;;
43676;SDS011;29275;48.800;18.102;2022-11-03T00:16:05;2.40;;;1.35;;
43676;SDS011;29275;48.800;18.102;2022-11-03T00:19:08;3.03;;;0.95;;
43676;SDS011;29275;48.800;18.102;2022-11-03T00:22:10;6.13;;;1.27;;
43676;SDS011;29275;48.800;18.102;2022-11-03T00:25:13;2.85;;;1.08;;
43676;SDS011;29275;48.800;18.102;2022-11-03T00:28:15;8.57;;;1.10;;
43676;SDS011;29275;48.800;18.102;2022-11-03T00:34:19;5.20;;;1.42;;
43676;SDS011;29275;48.800;18.102;2022-11-03T00:37:21;2.85;;;1.25;;
43676;SDS011;29275;48.800;18.102;2022-11-03T00:40:23;2.15;;;0.65;;
43676;SDS011;29275;48.800;18.102;2022-11-03T00:43:25;4.18;;;1.05;;
43676;SDS011;29275;48.800;18.102;2022-11-03T00:46:28;3.47;;;1.33;;
43676;SDS011;29275;48.800;18.102;2022-11-03T00:49:30;2.45;;;1.23;;
43676;SDS011;29275;48.800;18.102;2022-11-03T00:52:32;3.22;;;1.88;;
43676;SDS011;29275;48.800;18.102;2022-11-03T00:55:34;2.88;;;1.38;;
43676;SDS011;29275;48.800;18.102;2022-11-03T00:58:36;5.10;;;1.35;;
43676;SDS011;29275;48.800;18.102;2022-11-03T01:01:42;2.30;;;1.33;;
43676;SDS011;29275;48.800;18.102;2022-11-03T01:04:47;5.30;;;1.23;;
43676;SDS011;29275;48.800;18.102;2022-11-03T01:08:08;2.65;;;1.27;;
43676;SDS011;29275;48.800;18.102;2022-11-03T01:11:11;3.55;;;1.50;;
43676;SDS011;29275;48.800;18.102;2022-11-03T01:17:39;6.15;;;2.15;;
43676;SDS011;29275;48.800;18.102;2022-11-03T01:20:41;2.92;;;1.30;;
43676;SDS011;29275;48.800;18.102;2022-11-03T01:23:43;4.65;;;1.20;;
43676;SDS011;29275;48.800;18.102;2022-11-03T01:26:45;3.00;;;0.98;;
43676;SDS011;29275;48.800;18.102;2022-11-03T01:29:47;4.55;;;1.17;;
43676;SDS011;29275;48.800;18.102;2022-11-03T01:32:49;2.83;;;1.55;;
43676;SDS011;29275;48.800;18.102;2022-11-03T01:35:54;1.58;;;1.00;;
43676;SDS011;29275;48.800;18.102;2022-11-03T01:38:55;3.03;;;1.20;;
43676;SDS011;29275;48.800;18.102;2022-11-03T01:41:57;3.92;;;1.20;;
43676;SDS011;29275;48.800;18.102;2022-11-03T01:44:59;4.28;;;1.95;;
43676;SDS011;29275;48.800;18.102;2022-11-03T01:48:01;9.77;;;1.70;;
43676;SDS011;29275;48.800;18.102;2022-11-03T01:51:03;2.40;;;1.38;;
43676;SDS011;29275;48.800;18.102;2022-11-03T01:54:08;2.35;;;0.95;;
43676;SDS011;29275;48.800;18.102;2022-11-03T01:57:12;2.70;;;1.38;;
43676;SDS011;29275;48.800;18.102;2022-11-03T02:00:16;3.25;;;1.55;;
43676;SDS011;29275;48.800;18.102;2022-11-03T02:03:19;5.07;;;0.98;;
43676;SDS011;29275;48.800;18.102;2022-11-03T02:06:24;1.80;;;0.82;;
43676;SDS011;29275;48.800;18.102;2022-11-03T02:09:27;4.55;;;0.95;;
43676;SDS011;29275;48.800;18.102;2022-11-03T02:12:29;1.58;;;0.88;;
43676;SDS011;29275;48.800;18.102;2022-11-03T02:15:32;3.85;;;1.33;;
43676;SDS011;29275;48.800;18.102;2022-11-03T02:18:34;4.35;;;1.92;;
43676;SDS011;29275;48.800;18.102;2022-11-03T02:21:38;3.22;;;1.35;;
43676;SDS011;29275;48.800;18.102;2022-11-03T02:24:52;2.83;;;1.25;;
43676;SDS011;29275;48.800;18.102;2022-11-03T02:28:00;2.88;;;0.80;;
43676;SDS011;29275;48.800;18.102;2022-11-03T02:31:17;4.03;;;1.83;;
43676;SDS011;29275;48.800;18.102;2022-11-03T02:34:41;10.60;;;1.02;;
43676;SDS011;29275;48.800;18.102;2022-11-03T02:37:48;5.22;;;1.00;;
43676;SDS011;29275;48.800;18.102;2022-11-03T02:40:54;1.00;;;0.40;;
43676;SDS011;29275;48.800;18.102;2022-11-03T02:43:59;2.88;;;1.00;;
43676;SDS011;29275;48.800;18.102;2022-11-03T02:47:02;14.52;;;1.63;;
43676;SDS011;29275;48.800;18.102;2022-11-03T02:50:07;4.38;;;1.95;;
43676;SDS011;29275;48.800;18.102;2022-11-03T02:53:11;4.03;;;1.73;;
43676;SDS011;29275;48.800;18.102;2022-11-03T02:56:15;3.45;;;1.85;;
43676;SDS011;29275;48.800;18.102;2022-11-03T02:59:25;5.25;;;2.03;;
43676;SDS011;29275;48.800;18.102;2022-11-03T03:02:33;3.63;;;1.88;;
43676;SDS011;29275;48.800;18.102;2022-11-03T03:05:39;3.08;;;1.23;;
43676;SDS011;29275;48.800;18.102;2022-11-03T03:08:43;1.30;;;0.65;;
43676;SDS011;29275;48.800;18.102;2022-11-03T03:11:50;1.65;;;0.80;;
43676;SDS011;29275;48.800;18.102;2022-11-03T03:14:54;8.80;;;1.35;;
43676;SDS011;29275;48.800;18.102;2022-11-03T03:21:25;5.45;;;1.15;;
43676;SDS011;29275;48.800;18.102;2022-11-03T03:24:54;1.38;;;0.80;;
43676;SDS011;29275;48.800;18.102;2022-11-03T03:28:10;3.30;;;0.57;;
43676;SDS011;29275;48.800;18.102;2022-11-03T03:31:19;3.28;;;0.93;;
43676;SDS011;29275;48.800;18.102;2022-11-03T03:34:22;2.20;;;1.10;;
43676;SDS011;29275;48.800;18.102;2022-11-03T03:37:36;1.77;;;0.75;;
43676;SDS011;29275;48.800;18.102;2022-11-03T03:40:41;2.25;;;1.20;;
43676;SDS011;29275;48.800;18.102;2022-11-03T03:43:44;3.67;;;2.10;;
43676;SDS011;29275;48.800;18.102;2022-11-03T03:46:48;3.72;;;1.00;;
43676;SDS011;29275;48.800;18.102;2022-11-03T03:49:57;1.73;;;1.10;;
43676;SDS011;29275;48.800;18.102;2022-11-03T03:52:59;1.38;;;0.65;;
43676;SDS011;29275;48.800;18.102;2022-11-03T03:56:02;2.72;;;1.38;;
43676;SDS011;29275;48.800;18.102;2022-11-03T03:59:06;2.50;;;1.15;;
43676;SDS011;29275;48.800;18.102;2022-11-03T04:02:09;3.40;;;1.55;;
43676;SDS011;29275;48.800;18.102;2022-11-03T04:05:12;2.17;;;1.10;;
43676;SDS011;29275;48.800;18.102;2022-11-03T04:08:14;1.88;;;1.10;;
43676;SDS011;29275;48.800;18.102;2022-11-03T04:11:17;1.50;;;0.70;;
43676;SDS011;29275;48.800;18.102;2022-11-03T04:14:37;1.95;;;1.17;;
43676;SDS011;29275;48.800;18.102;2022-11-03T04:17:58;2.00;;;1.10;;
43676;SDS011;29275;48.800;18.102;2022-11-03T04:21:18;3.58;;;2.38;;
43676;SDS011;29275;48.800;18.102;2022-11-03T04:24:39;3.20;;;1.45;;
43676;SDS011;29275;48.800;18.102;2022-11-03T04:27:40;2.72;;;1.58;;
43676;SDS011;29275;48.800;18.102;2022-11-03T04:30:42;2.78;;;1.77;;
43676;SDS011;29275;48.800;18.102;2022-11-03T04:33:44;2.72;;;1.60;;
43676;SDS011;29275;48.800;18.102;2022-11-03T04:36:46;4.40;;;1.55;;
43676;SDS011;29275;48.800;18.102;2022-11-03T04:39:48;5.90;;;1.77;;
43676;SDS011;29275;48.800;18.102;2022-11-03T04:42:50;3.95;;;1.75;;
43676;SDS011;29275;48.800;18.102;2022-11-03T04:45:52;4.10;;;2.20;;
43676;SDS011;29275;48.800;18.102;2022-11-03T04:48:57;3.20;;;1.73;;
43676;SDS011;29275;48.800;18.102;2022-11-03T04:51:59;2.92;;;1.45;;
43676;SDS011;29275;48.800;18.102;2022-11-03T04:55:01;7.22;;;1.88;;
43676;SDS011;29275;48.800;18.102;2022-11-03T04:58:25;3.05;;;1.83;;
43676;SDS011;29275;48.800;18.102;2022-11-03T05:01:28;2.80;;;1.40;;
43676;SDS011;29275;48.800;18.102;2022-11-03T05:04:30;1.42;;;0.90;;
43676;SDS011;29275;48.800;18.102;2022-11-03T05:07:33;2.88;;;1.50;;
43676;SDS011;29275;48.800;18.102;2022-11-03T05:10:35;2.40;;;1.15;;
43676;SDS011;29275;48.800;18.102;2022-11-03T05:13:37;2.30;;;1.13;;
43676;SDS011;29275;48.800;18.102;2022-11-03T05:16:39;2.00;;;1.10;;
43676;SDS011;29275;48.800;18.102;2022-11-03T05:19:42;2.05;;;1.30;;
43676;SDS011;29275;48.800;18.102;2022-11-03T05:22:44;1.95;;;0.90;;
43676;SDS011;29275;48.800;18.102;2022-11-03T05:25:51;2.05;;;0.88;;
43676;SDS011;29275;48.800;18.102;2022-11-03T05:29:29;3.50;;;0.85;;
43676;SDS011;29275;48.800;18.102;2022-11-03T05:32:26;2.42;;;0.95;;
43676;SDS011;29275;48.800;18.102;2022-11-03T05:35:30;1.17;;;0.60;;
43676;SDS011;29275;48.800;18.102;2022-11-03T05:38:32;3.90;;;0.93;;
43676;SDS011;29275;48.800;18.102;2022-11-03T05:41:36;1.35;;;0.82;;
43676;SDS011;29275;48.800;18.102;2022-11-03T05:44:39;2.08;;;0.75;;
43676;SDS011;29275;48.800;18.102;2022-11-03T05:47:41;1.25;;;0.50;;
43676;SDS011;29275;48.800;18.102;2022-11-03T05:50:43;0.88;;;0.52;;
43676;SDS011;29275;48.800;18.102;2022-11-03T05:53:45;2.35;;;0.75;;
43676;SDS011;29275;48.800;18.102;2022-11-03T05:56:51;2.22;;;0.82;;
43676;SDS011;29275;48.800;18.102;2022-11-03T05:59:54;1.58;;;0.63;;
43676;SDS011;29275;48.800;18.102;2022-11-03T06:02:56;1.05;;;0.60;;
43676;SDS011;29275;48.800;18.102;2022-11-03T06:06:00;1.60;;;0.63;;
43676;SDS011;29275;48.800;18.102;2022-11-03T06:09:08;2.03;;;0.80;;
43676;SDS011;29275;48.800;18.102;2022-11-03T06:12:16;1.48;;;0.50;;
43676;SDS011;29275;48.800;18.102;2022-11-03T06:15:27;6.82;;;1.25;;
43676;SDS011;29275;48.800;18.102;2022-11-03T06:18:35;0.68;;;0.45;;
43676;SDS011;29275;48.800;18.102;2022-11-03T06:21:38;1.08;;;0.50;;
43676;SDS011;29275;48.800;18.102;2022-11-03T06:24:45;1.50;;;0.65;;
43676;SDS011;29275;48.800;18.102;2022-11-03T06:27:48;1.23;;;0.50;;
43676;SDS011;29275;48.800;18.102;2022-11-03T06:30:52;2.78;;;1.08;;
43676;SDS011;29275;48.800;18.102;2022-11-03T06:33:55;1.25;;;0.65;;
43676;SDS011;29275;48.800;18.102;2022-11-03T06:37:00;3.92;;;1.30;;
43676;SDS011;29275;48.800;18.102;2022-11-03T06:43:22;5.50;;;2.15;;
43676;SDS011;29275;48.800;18.102;2022-11-03T06:46:28;2.92;;;1.45;;
43676;SDS011;29275;48.800;18.102;2022-11-03T06:49:32;2.67;;;1.35;;
43676;SDS011;29275;48.800;18.102;2022-11-03T06:52:38;2.75;;;1.67;;
43676;SDS011;29275;48.800;18.102;2022-11-03T06:55:44;7.47;;;1.50;;
43676;SDS011;29275;48.800;18.102;2022-11-03T06:58:48;3.55;;;1.95;;
43676;SDS011;29275;48.800;18.102;2022-11-03T07:01:53;4.53;;;1.63;;
43676;SDS011;29275;48.800;18.102;2022-11-03T07:04:56;5.32;;;1.83;;
43676;SDS011;29275;48.800;18.102;2022-11-03T07:08:00;3.50;;;1.80;;
43676;SDS011;29275;48.800;18.102;2022-11-03T07:14:19;3.40;;;1.55;;
43676;SDS011;29275;48.800;18.102;2022-11-03T07:17:22;3.25;;;1.45;;
43676;SDS011;29275;48.800;18.102;2022-11-03T07:20:27;4.30;;;2.00;;
43676;SDS011;29275;48.800;18.102;2022-11-03T07:23:30;3.35;;;1.30;;
43676;SDS011;29275;48.800;18.102;2022-11-03T07:26:32;3.17;;;1.00;;
43676;SDS011;29275;48.800;18.102;2022-11-03T07:29:35;3.42;;;1.45;;
43676;SDS011;29275;48.800;18.102;2022-11-03T07:32:38;4.93;;;3.03;;
43676;SDS011;29275;48.800;18.102;2022-11-03T07:35:41;6.18;;;3.55;;
43676;SDS011;29275;48.800;18.102;2022-11-03T07:39:04;3.28;;;1.65;;
43676;SDS011;29275;48.800;18.102;2022-11-03T07:42:14;6.35;;;2.65;;
43676;SDS011;29275;48.800;18.102;2022-11-03T07:48:44;9.77;;;3.63;;
43676;SDS011;29275;48.800;18.102;2022-11-03T07:51:48;12.70;;;7.65;;
43676;SDS011;29275;48.800;18.102;2022-11-03T07:54:52;12.00;;;7.43;;
43676;SDS011;29275;48.800;18.102;2022-11-03T07:57:55;8.05;;;4.68;;
43676;SDS011;29275;48.800;18.102;2022-11-03T08:00:59;4.18;;;1.95;;
43676;SDS011;29275;48.800;18.102;2022-11-03T08:04:03;10.68;;;2.65;;
43676;SDS011;29275;48.800;18.102;2022-11-03T08:07:07;8.10;;;2.33;;
43676;SDS011;29275;48.800;18.102;2022-11-03T08:10:10;5.38;;;2.03;;
43676;SDS011;29275;48.800;18.102;2022-11-03T08:13:14;3.83;;;1.88;;
43676;SDS011;29275;48.800;18.102;2022-11-03T08:16:18;4.97;;;1.90;;
43676;SDS011;29275;48.800;18.102;2022-11-03T08:19:21;3.03;;;1.20;;
43676;SDS011;29275;48.800;18.102;2022-11-03T08:22:23;8.30;;;1.20;;
43676;SDS011;29275;48.800;18.102;2022-11-03T08:25:27;3.63;;;1.73;;
43676;SDS011;29275;48.800;18.102;2022-11-03T08:28:29;6.15;;;1.83;;
43676;SDS011;29275;48.800;18.102;2022-11-03T08:31:33;4.35;;;2.00;;
43676;SDS011;29275;48.800;18.102;2022-11-03T08:34:35;7.22;;;2.97;;
43676;SDS011;29275;48.800;18.102;2022-11-03T08:37:40;4.78;;;1.90;;
43676;SDS011;29275;48.800;18.102;2022-11-03T08:40:42;10.73;;;1.90;;
43676;SDS011;29275;48.800;18.102;2022-11-03T08:43:45;3.45;;;1.20;;
43676;SDS011;29275;48.800;18.102;2022-11-03T08:46:48;3.58;;;1.40;;
43676;SDS011;29275;48.800;18.102;2022-11-03T08:49:50;3.42;;;1.73;;
43676;SDS011;29275;48.800;18.102;2022-11-03T08:52:52;5.43;;;2.75;;
43676;SDS011;29275;48.800;18.102;2022-11-03T08:55:55;3.05;;;1.50;;
43676;SDS011;29275;48.800;18.102;2022-11-03T08:58:58;4.55;;;2.15;;
43676;SDS011;29275;48.800;18.102;2022-11-03T09:02:00;4.07;;;1.67;;
43676;SDS011;29275;48.800;18.102;2022-11-03T09:05:03;2.75;;;1.92;;
43676;SDS011;29275;48.800;18.102;2022-11-03T09:08:07;9.15;;;1.75;;
43676;SDS011;29275;48.800;18.102;2022-11-03T09:11:30;7.78;;;2.00;;
43676;SDS011;29275;48.800;18.102;2022-11-03T09:14:32;3.97;;;1.77;;
43676;SDS011;29275;48.800;18.102;2022-11-03T09:17:34;7.35;;;2.47;;
43676;SDS011;29275;48.800;18.102;2022-11-03T09:20:38;7.18;;;2.22;;
43676;SDS011;29275;48.800;18.102;2022-11-03T09:23:43;3.45;;;1.88;;
43676;SDS011;29275;48.800;18.102;2022-11-03T09:26:45;3.63;;;1.52;;
43676;SDS011;29275;48.800;18.102;2022-11-03T09:29:47;5.90;;;1.98;;
43676;SDS011;29275;48.800;18.102;2022-11-03T09:33:14;4.80;;;1.73;;
43676;SDS011;29275;48.800;18.102;2022-11-03T09:36:19;4.35;;;1.98;;
43676;SDS011;29275;48.800;18.102;2022-11-03T09:39:21;3.05;;;1.85;;
43676;SDS011;29275;48.800;18.102;2022-11-03T09:42:23;2.00;;;1.27;;
43676;SDS011;29275;48.800;18.102;2022-11-03T09:45:26;5.78;;;3.55;;
43676;SDS011;29275;48.800;18.102;2022-11-03T09:48:28;6.70;;;3.47;;
43676;SDS011;29275;48.800;18.102;2022-11-03T09:51:30;5.05;;;2.22;;
43676;SDS011;29275;48.800;18.102;2022-11-03T09:54:33;4.15;;;1.98;;
43676;SDS011;29275;48.800;18.102;2022-11-03T09:57:35;3.25;;;2.10;;
43676;SDS011;29275;48.800;18.102;2022-11-03T10:00:37;3.10;;;1.45;;
43676;SDS011;29275;48.800;18.102;2022-11-03T10:03:40;2.33;;;1.20;;
43676;SDS011;29275;48.800;18.102;2022-11-03T10:06:42;3.00;;;1.67;;
43676;SDS011;29275;48.800;18.102;2022-11-03T10:09:45;2.78;;;0.95;;
43676;SDS011;29275;48.800;18.102;2022-11-03T10:12:49;5.93;;;2.10;;
43676;SDS011;29275;48.800;18.102;2022-11-03T10:15:53;4.22;;;1.40;;
43676;SDS011;29275;48.800;18.102;2022-11-03T10:18:56;5.15;;;1.98;;
43676;SDS011;29275;48.800;18.102;2022-11-03T10:21:58;2.55;;;1.23;;
43676;SDS011;29275;48.800;18.102;2022-11-03T10:28:30;1.98;;;1.17;;
43676;SDS011;29275;48.800;18.102;2022-11-03T10:31:36;4.15;;;1.48;;
43676;SDS011;29275;48.800;18.102;2022-11-03T10:34:40;1.85;;;1.02;;
43676;SDS011;29275;48.800;18.102;2022-11-03T10:37:42;4.38;;;1.67;;
43676;SDS011;29275;48.800;18.102;2022-11-03T10:40:45;2.00;;;1.33;;
43676;SDS011;29275;48.800;18.102;2022-11-03T10:43:59;5.75;;;1.45;;
43676;SDS011;29275;48.800;18.102;2022-11-03T10:47:09;3.40;;;1.42;;
43676;SDS011;29275;48.800;18.102;2022-11-03T10:50:42;3.45;;;1.30;;
43676;SDS011;29275;48.800;18.102;2022-11-03T10:53:45;2.08;;;1.17;;
43676;SDS011;29275;48.800;18.102;2022-11-03T10:56:47;2.92;;;1.35;;
43676;SDS011;29275;48.800;18.102;2022-11-03T10:59:51;5.15;;;1.83;;
43676;SDS011;29275;48.800;18.102;2022-11-03T11:02:57;2.58;;;1.25;;
43676;SDS011;29275;48.800;18.102;2022-11-03T11:06:00;3.15;;;1.10;;
43676;SDS011;29275;48.800;18.102;2022-11-03T11:09:03;3.85;;;1.35;;
43676;SDS011;29275;48.800;18.102;2022-11-03T11:22:01;4.28;;;1.27;;
43676;SDS011;29275;48.800;18.102;2022-11-03T11:25:14;2.97;;;1.17;;
43676;SDS011;29275;48.800;18.102;2022-11-03T11:28:17;4.25;;;1.20;;
43676;SDS011;29275;48.800;18.102;2022-11-03T11:37:36;12.30;;;1.63;;
43676;SDS011;29275;48.800;18.102;2022-11-03T11:40:48;3.55;;;1.55;;
43676;SDS011;29275;48.800;18.102;2022-11-03T11:43:50;2.45;;;1.42;;
43676;SDS011;29275;48.800;18.102;2022-11-03T11:46:55;5.13;;;1.52;;
43676;SDS011;29275;48.800;18.102;2022-11-03T11:53:10;2.97;;;1.35;;
43676;SDS011;29275;48.800;18.102;2022-11-03T11:56:13;9.25;;;1.90;;
43676;SDS011;29275;48.800;18.102;2022-11-03T11:59:18;4.88;;;1.92;;
43676;SDS011;29275;48.800;18.102;2022-11-03T12:02:28;2.58;;;1.30;;
43676;SDS011;29275;48.800;18.102;2022-11-03T12:05:31;4.28;;;2.30;;
43676;SDS011;29275;48.800;18.102;2022-11-03T12:08:34;4.57;;;1.85;;
43676;SDS011;29275;48.800;18.102;2022-11-03T12:14:58;4.15;;;1.60;;
43676;SDS011;29275;48.800;18.102;2022-11-03T12:18:26;3.60;;;2.00;;
43676;SDS011;29275;48.800;18.102;2022-11-03T12:21:44;5.25;;;1.65;;
43676;SDS011;29275;48.800;18.102;2022-11-03T12:24:52;3.65;;;1.83;;
43676;SDS011;29275;48.800;18.102;2022-11-03T12:27:59;5.82;;;2.50;;
43676;SDS011;29275;48.800;18.102;2022-11-03T12:31:02;4.65;;;2.30;;
43676;SDS011;29275;48.800;18.102;2022-11-03T12:34:05;6.03;;;1.85;;
43676;SDS011;29275;48.800;18.102;2022-11-03T12:37:08;4.93;;;2.25;;
43676;SDS011;29275;48.800;18.102;2022-11-03T12:40:11;3.70;;;1.88;;
43676;SDS011;29275;48.800;18.102;2022-11-03T12:43:15;4.60;;;2.35;;
43676;SDS011;29275;48.800;18.102;2022-11-03T12:46:18;5.22;;;2.58;;
43676;SDS011;29275;48.800;18.102;2022-11-03T12:49:22;4.78;;;2.22;;
43676;SDS011;29275;48.800;18.102;2022-11-03T12:52:23;6.25;;;2.63;;
43676;SDS011;29275;48.800;18.102;2022-11-03T12:55:26;5.82;;;1.92;;
43676;SDS011;29275;48.800;18.102;2022-11-03T12:58:29;7.97;;;2.10;;
43676;SDS011;29275;48.800;18.102;2022-11-03T13:01:31;3.67;;;2.40;;
43676;SDS011;29275;48.800;18.102;2022-11-03T13:04:34;9.70;;;2.28;;
43676;SDS011;29275;48.800;18.102;2022-11-03T13:07:36;3.92;;;2.58;;
43676;SDS011;29275;48.800;18.102;2022-11-03T13:10:38;4.82;;;2.20;;
43676;SDS011;29275;48.800;18.102;2022-11-03T13:13:41;6.07;;;2.38;;
43676;SDS011;29275;48.800;18.102;2022-11-03T13:16:44;4.88;;;2.15;;
43676;SDS011;29275;48.800;18.102;2022-11-03T13:19:47;5.50;;;2.10;;
43676;SDS011;29275;48.800;18.102;2022-11-03T13:22:55;4.32;;;2.30;;
43676;SDS011;29275;48.800;18.102;2022-11-03T13:25:58;5.05;;;3.15;;
43676;SDS011;29275;48.800;18.102;2022-11-03T13:29:00;7.32;;;2.38;;
43676;SDS011;29275;48.800;18.102;2022-11-03T13:32:03;4.25;;;2.80;;
43676;SDS011;29275;48.800;18.102;2022-11-03T13:35:06;5.32;;;2.45;;
43676;SDS011;29275;48.800;18.102;2022-11-03T13:38:14;3.22;;;2.05;;
43676;SDS011;29275;48.800;18.102;2022-11-03T13:41:16;6.50;;;2.03;;
43676;SDS011;29275;48.800;18.102;2022-11-03T13:44:19;6.53;;;2.28;;
43676;SDS011;29275;48.800;18.102;2022-11-03T13:47:22;5.32;;;1.50;;
43676;SDS011;29275;48.800;18.102;2022-11-03T13:50:44;3.17;;;1.73;;
43676;SDS011;29275;48.800;18.102;2022-11-03T13:53:48;5.88;;;2.10;;
43676;SDS011;29275;48.800;18.102;2022-11-03T13:57:10;3.45;;;1.70;;
43676;SDS011;29275;48.800;18.102;2022-11-03T14:00:33;3.28;;;1.83;;
43676;SDS011;29275;48.800;18.102;2022-11-03T14:03:35;3.20;;;1.38;;
43676;SDS011;29275;48.800;18.102;2022-11-03T14:06:58;7.07;;;2.20;;
43676;SDS011;29275;48.800;18.102;2022-11-03T14:10:00;4.13;;;1.83;;
43676;SDS011;29275;48.800;18.102;2022-11-03T14:13:04;6.35;;;1.88;;
43676;SDS011;29275;48.800;18.102;2022-11-03T14:16:09;3.17;;;1.50;;
43676;SDS011;29275;48.800;18.102;2022-11-03T14:19:11;3.90;;;1.63;;
43676;SDS011;29275;48.800;18.102;2022-11-03T14:22:13;5.90;;;4.00;;
43676;SDS011;29275;48.800;18.102;2022-11-03T14:25:16;10.00;;;1.73;;
43676;SDS011;29275;48.800;18.102;2022-11-03T14:28:20;14.68;;;4.20;;
43676;SDS011;29275;48.800;18.102;2022-11-03T14:31:27;4.82;;;2.05;;
43676;SDS011;29275;48.800;18.102;2022-11-03T14:34:29;7.25;;;2.15;;
43676;SDS011;29275;48.800;18.102;2022-11-03T14:37:31;3.95;;;2.05;;
43676;SDS011;29275;48.800;18.102;2022-11-03T14:40:34;6.25;;;1.83;;
43676;SDS011;29275;48.800;18.102;2022-11-03T14:43:55;23.48;;;7.13;;
43676;SDS011;29275;48.800;18.102;2022-11-03T14:46:58;9.52;;;2.03;;
43676;SDS011;29275;48.800;18.102;2022-11-03T14:50:02;6.05;;;2.28;;
43676;SDS011;29275;48.800;18.102;2022-11-03T14:53:06;4.13;;;1.90;;
43676;SDS011;29275;48.800;18.102;2022-11-03T14:56:09;7.38;;;2.00;;
43676;SDS011;29275;48.800;18.102;2022-11-03T14:59:12;6.07;;;1.58;;
43676;SDS011;29275;48.800;18.102;2022-11-03T15:02:14;7.28;;;2.67;;
43676;SDS011;29275;48.800;18.102;2022-11-03T15:05:17;7.55;;;2.08;;
43676;SDS011;29275;48.800;18.102;2022-11-03T15:08:46;6.03;;;2.28;;
43676;SDS011;29275;48.800;18.102;2022-11-03T15:11:56;5.43;;;2.03;;
43676;SDS011;29275;48.800;18.102;2022-11-03T15:14:59;4.45;;;2.33;;
43676;SDS011;29275;48.800;18.102;2022-11-03T15:18:05;5.13;;;2.40;;
43676;SDS011;29275;48.800;18.102;2022-11-03T15:21:08;4.68;;;2.38;;
43676;SDS011;29275;48.800;18.102;2022-11-03T15:24:13;4.65;;;2.47;;
43676;SDS011;29275;48.800;18.102;2022-11-03T15:27:35;5.50;;;3.40;;
43676;SDS011;29275;48.800;18.102;2022-11-03T15:30:39;4.93;;;2.70;;
43676;SDS011;29275;48.800;18.102;2022-11-03T15:33:41;12.77;;;3.25;;
43676;SDS011;29275;48.800;18.102;2022-11-03T15:36:43;6.53;;;3.45;;
43676;SDS011;29275;48.800;18.102;2022-11-03T15:39:46;7.47;;;3.13;;
43676;SDS011;29275;48.800;18.102;2022-11-03T15:42:48;5.47;;;2.15;;
43676;SDS011;29275;48.800;18.102;2022-11-03T15:45:50;8.35;;;3.45;;
43676;SDS011;29275;48.800;18.102;2022-11-03T15:48:52;6.75;;;2.90;;
43676;SDS011;29275;48.800;18.102;2022-11-03T15:51:57;8.23;;;4.40;;
43676;SDS011;29275;48.800;18.102;2022-11-03T15:54:59;7.93;;;3.58;;
43676;SDS011;29275;48.800;18.102;2022-11-03T15:58:01;8.63;;;3.78;;
43676;SDS011;29275;48.800;18.102;2022-11-03T16:01:03;9.20;;;3.30;;
43676;SDS011;29275;48.800;18.102;2022-11-03T16:04:06;6.85;;;3.15;;
43676;SDS011;29275;48.800;18.102;2022-11-03T16:07:08;10.15;;;4.32;;
43676;SDS011;29275;48.800;18.102;2022-11-03T16:10:16;5.82;;;2.72;;
43676;SDS011;29275;48.800;18.102;2022-11-03T16:13:18;8.45;;;3.85;;
43676;SDS011;29275;48.800;18.102;2022-11-03T16:16:20;9.25;;;3.72;;
43676;SDS011;29275;48.800;18.102;2022-11-03T16:19:22;9.50;;;4.65;;
43676;SDS011;29275;48.800;18.102;2022-11-03T16:22:24;6.43;;;4.10;;
43676;SDS011;29275;48.800;18.102;2022-11-03T16:25:27;9.23;;;3.70;;
43676;SDS011;29275;48.800;18.102;2022-11-03T16:28:29;11.98;;;5.93;;
43676;SDS011;29275;48.800;18.102;2022-11-03T16:31:31;6.80;;;4.10;;
43676;SDS011;29275;48.800;18.102;2022-11-03T16:34:33;9.00;;;4.03;;
43676;SDS011;29275;48.800;18.102;2022-11-03T16:37:35;7.18;;;3.42;;
43676;SDS011;29275;48.800;18.102;2022-11-03T16:40:38;7.38;;;3.80;;
43676;SDS011;29275;48.800;18.102;2022-11-03T16:43:40;9.25;;;3.92;;
43676;SDS011;29275;48.800;18.102;2022-11-03T16:46:42;9.93;;;3.92;;
43676;SDS011;29275;48.800;18.102;2022-11-03T16:49:44;6.88;;;3.45;;
43676;SDS011;29275;48.800;18.102;2022-11-03T16:52:46;15.38;;;4.20;;
43676;SDS011;29275;48.800;18.102;2022-11-03T16:55:49;10.90;;;4.50;;
43676;SDS011;29275;48.800;18.102;2022-11-03T16:58:51;7.82;;;3.95;;
43676;SDS011;29275;48.800;18.102;2022-11-03T17:01:53;10.07;;;5.10;;
43676;SDS011;29275;48.800;18.102;2022-11-03T17:04:57;12.48;;;5.22;;
43676;SDS011;29275;48.800;18.102;2022-11-03T17:07:59;12.25;;;5.10;;
43676;SDS011;29275;48.800;18.102;2022-11-03T17:11:02;10.30;;;4.85;;
43676;SDS011;29275;48.800;18.102;2022-11-03T17:14:06;8.27;;;4.57;;
43676;SDS011;29275;48.800;18.102;2022-11-03T17:17:09;9.48;;;4.75;;
43676;SDS011;29275;48.800;18.102;2022-11-03T17:20:12;12.50;;;5.15;;
43676;SDS011;29275;48.800;18.102;2022-11-03T17:23:13;8.82;;;5.57;;
43676;SDS011;29275;48.800;18.102;2022-11-03T17:26:17;9.02;;;5.30;;
43676;SDS011;29275;48.800;18.102;2022-11-03T17:29:22;15.57;;;6.13;;
43676;SDS011;29275;48.800;18.102;2022-11-03T17:32:36;11.25;;;5.30;;
43676;SDS011;29275;48.800;18.102;2022-11-03T17:35:40;10.25;;;5.43;;
43676;SDS011;29275;48.800;18.102;2022-11-03T17:38:43;11.05;;;6.22;;
43676;SDS011;29275;48.800;18.102;2022-11-03T17:41:45;13.02;;;5.60;;
43676;SDS011;29275;48.800;18.102;2022-11-03T17:44:48;11.45;;;6.00;;
43676;SDS011;29275;48.800;18.102;2022-11-03T17:47:51;10.48;;;5.90;;
43676;SDS011;29275;48.800;18.102;2022-11-03T17:50:54;10.55;;;5.63;;
43676;SDS011;29275;48.800;18.102;2022-11-03T17:53:57;12.35;;;5.68;;
43676;SDS011;29275;48.800;18.102;2022-11-03T17:57:00;11.65;;;5.45;;
43676;SDS011;29275;48.800;18.102;2022-11-03T18:00:03;10.57;;;6.03;;
43676;SDS011;29275;48.800;18.102;2022-11-03T18:03:10;8.90;;;4.53;;
43676;SDS011;29275;48.800;18.102;2022-11-03T18:06:16;8.43;;;5.05;;
43676;SDS011;29275;48.800;18.102;2022-11-03T18:09:20;9.30;;;5.20;;
43676;SDS011;29275;48.800;18.102;2022-11-03T18:12:24;8.60;;;5.35;;
43676;SDS011;29275;48.800;18.102;2022-11-03T18:15:47;9.95;;;6.43;;
43676;SDS011;29275;48.800;18.102;2022-11-03T18:18:53;8.50;;;5.28;;
43676;SDS011;29275;48.800;18.102;2022-11-03T18:21:55;9.10;;;4.88;;
43676;SDS011;29275;48.800;18.102;2022-11-03T18:24:58;10.18;;;6.10;;
43676;SDS011;29275;48.800;18.102;2022-11-03T18:28:00;8.02;;;5.13;;
43676;SDS011;29275;48.800;18.102;2022-11-03T18:31:04;16.85;;;7.28;;
43676;SDS011;29275;48.800;18.102;2022-11-03T18:34:28;12.15;;;6.22;;
43676;SDS011;29275;48.800;18.102;2022-11-03T18:37:32;10.70;;;6.03;;
43676;SDS011;29275;48.800;18.102;2022-11-03T18:40:39;11.45;;;6.25;;
43676;SDS011;29275;48.800;18.102;2022-11-03T18:43:41;11.82;;;6.00;;
43676;SDS011;29275;48.800;18.102;2022-11-03T18:46:43;11.82;;;6.13;;
43676;SDS011;29275;48.800;18.102;2022-11-03T18:49:49;9.65;;;5.65;;
43676;SDS011;29275;48.800;18.102;2022-11-03T18:52:56;13.45;;;6.28;;
43676;SDS011;29275;48.800;18.102;2022-11-03T18:56:00;10.93;;;6.40;;
43676;SDS011;29275;48.800;18.102;2022-11-03T18:59:03;11.05;;;6.65;;
43676;SDS011;29275;48.800;18.102;2022-11-03T19:02:09;9.98;;;5.68;;